Time;durP1;ratioP1;P1;durP2;ratioP2;P2;SDS_P1;SDS_P2;PMS_P1;PMS_P2;Temp;Humidity;BMP_temperature;BMP_pressure;BME280_temperature;BME280_humidity;BME280_pressure;Samples;Min_cycle;Max_cycle;Signal;HPM_P1;HPM_P2
2022/11/22 00:00:33;;;;;;;2.17;0.50;;;18.20;57.90;;;;;;5035624;28;20239;-82
2022/11/22 00:03:04;;;;;;;2.50;0.35;;;18.20;58.30;;;;;;5038028;28;20337;-82
2022/11/22 00:05:37;;;;;;;2.92;0.40;;;18.40;57.50;;;;;;5046700;28;20188;-83
2022/11/22 00:08:08;;;;;;;4.50;0.50;;;18.40;56.60;;;;;;5034035;28;20237;-83
2022/11/22 00:10:39;;;;;;;1.15;0.43;;;18.50;56.40;;;;;;5047370;28;20264;-83
2022/11/22 00:13:10;;;;;;;1.67;0.50;;;18.40;56.90;;;;;;5044663;28;20251;-82
2022/11/22 00:15:41;;;;;;;1.38;0.52;;;18.50;56.30;;;;;;5037491;28;20212;-83
2022/11/22 00:18:12;;;;;;;1.13;0.40;;;18.60;55.80;;;;;;5051287;28;20608;-83
2022/11/22 00:20:45;;;;;;;2.55;0.50;;;18.70;56.30;;;;;;5046229;28;20287;-83
2022/11/22 00:23:16;;;;;;;2.33;0.60;;;19.00;55.80;;;;;;5036034;28;20217;-82
2022/11/22 00:25:48;;;;;;;1.05;0.40;;;19.20;55.50;;;;;;5041569;28;20231;-83
2022/11/22 00:28:19;;;;;;;3.15;0.60;;;19.40;55.20;;;;;;5053881;28;20663;-82
2022/11/22 00:30:51;;;;;;;2.67;0.60;;;19.60;54.10;;;;;;5042449;28;20229;-83
2022/11/22 00:33:21;;;;;;;3.58;0.73;;;19.70;53.50;;;;;;5038189;28;20197;-83
2022/11/22 00:35:54;;;;;;;3.33;0.57;;;19.70;52.50;;;;;;5046554;28;20208;-80
2022/11/22 00:38:26;;;;;;;1.70;0.50;;;19.70;51.80;;;;;;5044310;28;20193;-80
2022/11/22 00:40:57;;;;;;;1.55;0.50;;;19.60;52.70;;;;;;5037865;28;20326;-81
2022/11/22 00:43:27;;;;;;;0.88;0.43;;;19.50;53.10;;;;;;5048628;28;20296;-82
2022/11/22 00:45:59;;;;;;;2.00;0.60;;;19.50;51.80;;;;;;5048180;28;20291;-82
2022/11/22 00:48:30;;;;;;;2.03;0.50;;;19.50;51.80;;;;;;5045045;28;20276;-81
2022/11/22 00:51:03;;;;;;;1.90;0.40;;;19.40;51.20;;;;;;5034148;28;20207;-82
2022/11/22 00:53:33;;;;;;;0.95;0.55;;;19.50;50.60;;;;;;5050460;28;20228;-82
2022/11/22 00:56:04;;;;;;;2.75;0.50;;;19.60;51.00;;;;;;5054711;28;20686;-81
2022/11/22 00:58:35;;;;;;;2.78;0.40;;;19.90;50.90;;;;;;5064964;28;20238;-82
2022/11/22 01:01:06;;;;;;;0.57;0.47;;;20.00;51.00;;;;;;5062615;28;20191;-82
2022/11/22 01:03:37;;;;;;;5.10;1.02;;;20.20;51.10;;;;;;5054684;28;20191;-82
2022/11/22 01:06:10;;;;;;;1.15;0.50;;;20.30;51.20;;;;;;5061611;28;20196;-81
2022/11/22 01:08:41;;;;;;;1.38;0.45;;;20.40;49.70;;;;;;5055018;28;20200;-81
2022/11/22 01:11:12;;;;;;;0.85;0.43;;;20.60;48.90;;;;;;5053259;28;20192;-81
2022/11/22 01:13:43;;;;;;;2.50;0.50;;;20.70;49.30;;;;;;5066402;28;20538;-81
2022/11/22 01:16:14;;;;;;;0.80;0.50;;;20.80;48.70;;;;;;5052657;28;20318;-78
2022/11/22 01:18:46;;;;;;;11.40;0.88;;;21.00;49.70;;;;;;5064645;28;20213;-77
2022/11/22 01:21:19;;;;;;;2.53;1.08;;;21.10;49.40;;;;;;5058582;28;20230;-81
2022/11/22 01:23:50;;;;;;;2.67;0.90;;;20.60;49.30;;;;;;5062414;28;20200;-81
2022/11/22 01:26:21;;;;;;;2.65;0.90;;;20.50;49.20;;;;;;5066767;28;20217;-81
2022/11/22 01:28:53;;;;;;;0.98;0.57;;;20.50;49.90;;;;;;5062124;28;20295;-81
2022/11/22 01:31:24;;;;;;;2.53;0.70;;;20.80;50.70;;;;;;5059561;28;20212;-81
2022/11/22 01:33:55;;;;;;;2.55;1.98;;;21.00;48.80;;;;;;5053433;28;20232;-81
2022/11/22 01:36:28;;;;;;;4.40;1.30;;;21.00;48.30;;;;;;5061332;28;20212;-82
2022/11/22 01:38:58;;;;;;;0.80;0.50;;;21.20;48.40;;;;;;5072024;28;20202;-82
2022/11/22 01:41:29;;;;;;;1.17;0.50;;;21.30;47.90;;;;;;5065162;28;20275;-81
2022/11/22 01:44:19;;;;;;;2.45;0.60;;;21.50;46.90;;;;;;5054465;28;20204;-82
2022/11/22 01:46:53;;;;;;;3.00;0.50;;;21.50;46.40;;;;;;5067055;28;20278;-82
2022/11/22 01:49:30;;;;;;;1.30;0.52;;;21.60;45.50;;;;;;5062874;28;20198;-81
2022/11/22 01:52:08;;;;;;;4.03;0.70;;;21.60;46.10;;;;;;5064115;28;20237;-81
2022/11/22 01:54:42;;;;;;;1.17;0.40;;;21.80;46.60;;;;;;5055074;28;20235;-82
2022/11/22 01:57:17;;;;;;;1.50;0.50;;;21.80;46.60;;;;;;5067403;28;20230;-81
2022/11/22 01:59:50;;;;;;;0.98;0.52;;;21.80;46.40;;;;;;5061948;28;20654;-82
2022/11/22 02:02:21;;;;;;;1.52;0.57;;;21.90;47.00;;;;;;5067178;28;20216;-81
2022/11/22 02:04:55;;;;;;;2.22;0.57;;;21.90;46.60;;;;;;5054652;28;20230;-80
2022/11/22 02:07:30;;;;;;;1.15;0.52;;;22.00;46.80;;;;;;5053391;28;20196;-81
2022/11/22 02:10:02;;;;;;;1.67;0.60;;;21.70;46.10;;;;;;5054023;28;20227;-80
2022/11/22 02:12:34;;;;;;;0.75;0.32;;;21.50;46.40;;;;;;5059376;28;20204;-81
2022/11/22 02:15:06;;;;;;;0.60;0.30;;;21.70;45.90;;;;;;5069944;28;20217;-80
2022/11/22 02:17:36;;;;;;;2.10;0.50;;;21.70;46.10;;;;;;5053891;28;20204;-81
2022/11/22 02:20:11;;;;;;;0.68;0.50;;;21.80;45.20;;;;;;5073164;28;20207;-80
2022/11/22 02:22:53;;;;;;;0.65;0.25;;;21.80;46.30;;;;;;5073693;28;20210;-81
2022/11/22 02:25:31;;;;;;;2.13;0.40;;;21.90;45.60;;;;;;5073196;28;20200;-81
2022/11/22 02:28:04;;;;;;;2.35;0.65;;;22.00;45.60;;;;;;5074284;28;20200;-80
2022/11/22 02:30:35;;;;;;;1.85;0.50;;;22.20;46.20;;;;;;5053530;28;20201;-80
2022/11/22 02:33:07;;;;;;;1.27;0.60;;;22.50;44.30;;;;;;5054111;28;20193;-80
2022/11/22 02:35:38;;;;;;;1.67;0.50;;;22.30;44.80;;;;;;5073399;28;20255;-82
2022/11/22 02:38:11;;;;;;;1.35;0.50;;;22.70;45.50;;;;;;5073219;28;20702;-82
2022/11/22 02:40:44;;;;;;;3.78;0.70;;;23.10;44.30;;;;;;5072799;28;20509;-82
2022/11/22 02:43:20;;;;;;;0.60;0.50;;;22.90;43.10;;;;;;5072911;28;20306;-81
2022/11/22 02:45:51;;;;;;;2.05;0.60;;;22.80;43.90;;;;;;5064212;28;20199;-81
2022/11/22 02:48:22;;;;;;;1.63;0.47;;;22.80;44.10;;;;;;5058017;28;20203;-81
2022/11/22 02:50:52;;;;;;;3.38;0.65;;;22.60;44.60;;;;;;5060245;28;20298;-81
2022/11/22 02:53:24;;;;;;;2.08;0.57;;;22.70;44.30;;;;;;5068766;28;20686;-80
2022/11/22 02:55:54;;;;;;;1.42;0.38;;;22.70;44.60;;;;;;5072572;28;20250;-81
2022/11/22 02:58:29;;;;;;;1.58;0.50;;;22.90;45.20;;;;;;5058245;28;20555;-78
2022/11/22 03:01:00;;;;;;;1.27;0.50;;;23.30;44.80;;;;;;5055566;28;20202;-82
2022/11/22 03:03:31;;;;;;;2.05;0.68;;;23.40;43.50;;;;;;5054502;28;20193;-81
2022/11/22 03:06:02;;;;;;;3.03;0.63;;;23.10;43.80;;;;;;5070294;28;20188;-81
2022/11/22 03:08:34;;;;;;;0.60;0.45;;;23.30;43.90;;;;;;5057257;28;20201;-81
2022/11/22 03:11:05;;;;;;;1.88;0.57;;;23.40;44.10;;;;;;5066815;28;20196;-81
2022/11/22 03:13:38;;;;;;;2.30;0.60;;;23.70;43.90;;;;;;5067612;28;20188;-83
2022/11/22 03:16:09;;;;;;;1.70;0.50;;;23.70;44.50;;;;;;5055118;28;20235;-81
2022/11/22 03:18:40;;;;;;;1.45;0.57;;;23.70;43.10;;;;;;5051574;28;20248;-82
2022/11/22 03:21:12;;;;;;;1.45;0.50;;;23.80;43.80;;;;;;5052149;28;20300;-82
2022/11/22 03:23:43;;;;;;;1.40;0.45;;;24.00;42.80;;;;;;5051898;28;20197;-82
2022/11/22 03:26:14;;;;;;;0.77;0.50;;;24.00;42.20;;;;;;5063879;28;20200;-83
2022/11/22 03:28:47;;;;;;;0.95;0.35;;;24.20;43.30;;;;;;5071753;28;20207;-82
2022/11/22 03:31:18;;;;;;;1.55;0.55;;;24.60;42.90;;;;;;5072570;28;20669;-82
2022/11/22 03:33:53;;;;;;;2.15;0.43;;;24.50;41.80;;;;;;5055298;28;20218;-82
2022/11/22 03:36:24;;;;;;;0.70;0.40;;;24.50;41.20;;;;;;5064595;28;20222;-84
2022/11/22 03:38:55;;;;;;;2.67;0.65;;;24.40;41.70;;;;;;5068463;28;20212;-82
2022/11/22 03:41:26;;;;;;;0.35;0.30;;;24.50;42.60;;;;;;5065847;28;20220;-83
2022/11/22 03:43:59;;;;;;;0.90;0.40;;;24.50;42.20;;;;;;5061881;28;20363;-81
2022/11/22 03:46:30;;;;;;;1.33;0.40;;;24.80;40.30;;;;;;5055709;28;20287;-80
2022/11/22 03:49:02;;;;;;;2.28;0.47;;;24.60;41.50;;;;;;5057975;28;20192;-81
2022/11/22 03:51:33;;;;;;;1.27;0.50;;;24.10;41.10;;;;;;5061778;28;20326;-80
2022/11/22 03:54:04;;;;;;;1.75;0.52;;;24.20;42.10;;;;;;5061728;28;20236;-82
2022/11/22 03:56:35;;;;;;;1.23;0.50;;;24.50;40.90;;;;;;5050866;28;20216;-82
2022/11/22 03:59:08;;;;;;;0.98;0.50;;;24.00;41.10;;;;;;5081168;28;20195;-81
2022/11/22 04:01:39;;;;;;;1.38;0.43;;;24.30;41.50;;;;;;5086354;28;20290;-82
2022/11/22 04:04:10;;;;;;;0.98;0.40;;;24.30;41.40;;;;;;5063435;28;20189;-80
2022/11/22 04:06:41;;;;;;;0.80;0.40;;;24.50;41.50;;;;;;5053624;28;20226;-81
2022/11/22 04:09:12;;;;;;;1.77;0.50;;;24.70;41.30;;;;;;5075003;28;20187;-81
2022/11/22 04:11:42;;;;;;;0.70;0.32;;;24.70;41.00;;;;;;5060925;28;20200;-82
2022/11/22 04:17:04;;;;;;;2.92;0.40;;;24.70;40.90;;;;;;5054696;28;20262;-80
2022/11/22 04:19:34;;;;;;;2.08;0.40;;;24.90;40.70;;;;;;5066682;28;20214;-83
2022/11/22 04:22:04;;;;;;;1.05;0.50;;;25.00;41.60;;;;;;5063638;28;20583;-83
2022/11/22 04:27:21;;;;;;;1.48;0.50;;;25.50;41.00;;;;;;5060858;28;20395;-84
2022/11/22 04:29:54;;;;;;;1.27;0.60;;;25.80;40.90;;;;;;5063687;28;20193;-83
2022/11/22 04:35:10;;;;;;;1.58;0.55;;;26.00;40.70;;;;;;5068621;28;20574;-82
2022/11/22 04:37:42;;;;;;;1.48;0.50;;;26.20;40.80;;;;;;5065033;28;20192;-81
2022/11/22 04:40:13;;;;;;;1.23;0.40;;;25.80;41.50;;;;;;5056341;28;20224;-82
2022/11/22 04:45:32;;;;;;;3.15;0.75;;;25.60;40.80;;;;;;5051989;28;20207;-82
2022/11/22 04:48:03;;;;;;;0.98;0.60;;;25.70;40.50;;;;;;5053350;28;20328;-82
2022/11/22 04:53:22;;;;;;;1.73;0.50;;;25.90;40.30;;;;;;5051415;28;20751;-82
2022/11/22 04:55:53;;;;;;;1.30;0.38;;;26.30;41.20;;;;;;5060479;28;20239;-82
2022/11/22 04:58:24;;;;;;;2.05;0.30;;;26.20;41.00;;;;;;5051672;28;20192;-82
2022/11/22 05:00:57;;;;;;;4.50;0.50;;;26.60;40.70;;;;;;5058760;28;20229;-83
2022/11/22 05:03:28;;;;;;;1.75;0.35;;;26.80;40.20;;;;;;5066303;28;20206;-83
2022/11/22 05:06:01;;;;;;;1.75;0.50;;;26.90;39.90;;;;;;5068061;28;20212;-82
2022/11/22 05:08:33;;;;;;;0.63;0.30;;;27.00;38.70;;;;;;5068692;28;20212;-82
2022/11/22 05:11:03;;;;;;;3.03;0.43;;;26.90;39.30;;;;;;5070388;28;20198;-82
2022/11/22 05:13:36;;;;;;;1.85;0.60;;;26.80;39.90;;;;;;5068661;28;20192;-82
2022/11/22 05:16:13;;;;;;;1.80;0.40;;;26.20;40.60;;;;;;5071648;28;20228;-82
2022/11/22 05:18:57;;;;;;;2.15;0.50;;;26.40;39.80;;;;;;5063664;28;20636;-83
2022/11/22 05:21:29;;;;;;;3.65;0.80;;;26.80;39.80;;;;;;5056655;28;20642;-82
2022/11/22 05:23:58;;;;;;;1.65;0.45;;;26.50;39.10;;;;;;5061999;28;20200;-82
2022/11/22 05:26:30;;;;;;;4.88;0.60;;;26.90;40.20;;;;;;5066965;28;20215;-82
2022/11/22 05:29:06;;;;;;;1.38;0.47;;;27.20;39.30;;;;;;5068916;28;20226;-82
2022/11/22 05:31:41;;;;;;;2.53;0.68;;;26.90;38.60;;;;;;5070736;28;20643;-83
2022/11/22 05:34:12;;;;;;;2.25;0.60;;;26.90;39.00;;;;;;5057708;28;20212;-82
2022/11/22 05:36:43;;;;;;;3.33;0.60;;;27.20;38.60;;;;;;5068240;28;20223;-82
2022/11/22 05:39:14;;;;;;;1.40;0.50;;;27.20;39.10;;;;;;5070331;28;20220;-82
2022/11/22 05:41:54;;;;;;;4.03;0.60;;;27.50;37.40;;;;;;5084338;28;20200;-82
2022/11/22 05:44:25;;;;;;;3.40;0.50;;;27.40;37.90;;;;;;5090435;28;20260;-83
2022/11/22 05:46:58;;;;;;;1.17;0.40;;;27.40;38.20;;;;;;5090871;28;20669;-82
2022/11/22 05:49:29;;;;;;;1.17;0.50;;;28.00;38.50;;;;;;5090974;28;20195;-83
2022/11/22 05:51:59;;;;;;;1.50;0.60;;;28.20;37.70;;;;;;5096319;28;20279;-83
2022/11/22 05:54:31;;;;;;;1.02;0.32;;;28.20;37.70;;;;;;5070949;28;20232;-83
2022/11/22 05:57:01;;;;;;;2.05;0.63;;;28.40;38.10;;;;;;5071074;28;20253;-83
2022/11/22 05:59:32;;;;;;;1.20;0.50;;;28.60;37.80;;;;;;5070534;28;20538;-83
2022/11/22 06:02:05;;;;;;;2.42;0.70;;;28.20;37.80;;;;;;5070344;28;20196;-82
2022/11/22 06:04:36;;;;;;;0.98;0.50;;;28.30;37.50;;;;;;5070057;28;20227;-82
2022/11/22 06:07:07;;;;;;;2.00;0.50;;;28.10;37.10;;;;;;5050385;28;20207;-83
2022/11/22 06:09:41;;;;;;;1.50;0.50;;;28.40;37.90;;;;;;5051902;28;20197;-82
2022/11/22 06:12:12;;;;;;;2.50;0.45;;;28.50;38.50;;;;;;5050699;28;20371;-83
2022/11/22 06:14:43;;;;;;;4.20;0.65;;;28.20;37.50;;;;;;5054384;28;20195;-82
2022/11/22 06:17:18;;;;;;;0.55;0.40;;;27.80;37.50;;;;;;5079143;28;20267;-82
2022/11/22 06:19:50;;;;;;;0.95;0.40;;;27.90;38.20;;;;;;5071137;28;20670;-82
2022/11/22 06:22:21;;;;;;;1.98;0.40;;;28.10;38.10;;;;;;5070408;28;20256;-83
2022/11/22 06:24:52;;;;;;;2.28;0.52;;;27.90;38.00;;;;;;5073394;28;20566;-82
2022/11/22 06:27:23;;;;;;;2.70;0.73;;;28.30;38.50;;;;;;5063991;28;20284;-82
2022/11/22 06:29:54;;;;;;;3.80;0.50;;;28.60;38.60;;;;;;5063515;28;20573;-83
2022/11/22 06:32:26;;;;;;;1.45;0.52;;;28.50;37.20;;;;;;5079720;28;20287;-82
2022/11/22 06:34:57;;;;;;;1.95;0.60;;;28.00;37.90;;;;;;5079833;28;20655;-82
2022/11/22 06:37:29;;;;;;;1.63;0.52;;;28.60;37.60;;;;;;5073622;28;20220;-82
2022/11/22 06:39:59;;;;;;;1.30;0.57;;;28.60;37.30;;;;;;5073111;28;20277;-82
2022/11/22 06:42:30;;;;;;;0.55;0.40;;;29.00;37.50;;;;;;5072933;28;20214;-82
2022/11/22 06:45:01;;;;;;;1.45;0.70;;;29.20;36.50;;;;;;5057871;28;20279;-82
2022/11/22 06:47:34;;;;;;;2.50;0.70;;;28.90;36.90;;;;;;5057433;28;20199;-82
2022/11/22 06:50:04;;;;;;;1.90;0.70;;;28.90;36.70;;;;;;5073042;28;20658;-82
2022/11/22 06:52:35;;;;;;;1.27;0.50;;;28.40;37.50;;;;;;5072007;28;20286;-82
2022/11/22 06:55:07;;;;;;;3.10;0.80;;;28.50;37.70;;;;;;5049318;28;20710;-82
2022/11/22 06:57:37;;;;;;;5.15;1.00;;;28.90;37.20;;;;;;5053135;28;20200;-82
2022/11/22 07:00:09;;;;;;;1.40;0.63;;;29.20;36.80;;;;;;5052882;28;20678;-82
2022/11/22 07:02:43;;;;;;;2.58;0.65;;;29.20;36.60;;;;;;5033262;28;20197;-82
2022/11/22 07:05:14;;;;;;;6.68;0.98;;;28.50;37.70;;;;;;5041603;28;20200;-82
2022/11/22 07:07:45;;;;;;;3.13;0.70;;;28.40;38.00;;;;;;5052636;28;20203;-82
2022/11/22 07:10:16;;;;;;;2.45;0.90;;;28.30;38.30;;;;;;5050387;28;20232;-82
2022/11/22 07:12:47;;;;;;;2.92;0.50;;;28.00;37.90;;;;;;5025247;28;20193;-82
2022/11/22 07:15:18;;;;;;;5.82;0.98;;;28.40;37.60;;;;;;5033116;28;20248;-83
2022/11/22 07:17:51;;;;;;;6.25;2.22;;;28.50;37.30;;;;;;5044690;28;20283;-82
2022/11/22 07:20:22;;;;;;;3.72;1.70;;;28.50;37.30;;;;;;5060276;28;20304;-83
2022/11/22 07:22:53;;;;;;;4.20;1.90;;;28.80;37.10;;;;;;5053741;28;20283;-82
2022/11/22 07:25:24;;;;;;;10.98;2.83;;;28.50;37.70;;;;;;5053010;28;20663;-81
2022/11/22 07:27:55;;;;;;;0.85;0.73;;;28.40;37.70;;;;;;5053220;28;20193;-83
2022/11/22 07:30:26;;;;;;;2.47;0.90;;;27.80;38.00;;;;;;5047332;28;20201;-82
2022/11/22 07:32:59;;;;;;;1.55;0.68;;;28.20;37.80;;;;;;5052056;28;20211;-82
2022/11/22 07:35:29;;;;;;;1.45;0.73;;;27.40;39.10;;;;;;5050134;28;20201;-82
2022/11/22 07:38:00;;;;;;;1.08;0.60;;;27.70;38.60;;;;;;5053172;28;20200;-82
2022/11/22 07:40:31;;;;;;;2.13;0.80;;;27.30;39.10;;;;;;5052958;28;20313;-82
2022/11/22 07:43:02;;;;;;;3.08;0.90;;;27.20;39.80;;;;;;5052785;28;20330;-83
2022/11/22 07:45:33;;;;;;;2.08;0.80;;;27.10;40.10;;;;;;5052634;28;20227;-82
2022/11/22 07:48:06;;;;;;;2.55;1.35;;;26.50;40.50;;;;;;5056133;28;20201;-83
2022/11/22 07:50:38;;;;;;;1.42;0.75;;;26.00;40.80;;;;;;5055860;28;20621;-83
2022/11/22 07:53:12;;;;;;;1.55;0.70;;;25.20;42.20;;;;;;5046019;28;20235;-83
2022/11/22 07:55:43;;;;;;;2.00;0.77;;;24.60;43.50;;;;;;5060199;28;20463;-82
2022/11/22 07:58:14;;;;;;;2.90;1.05;;;23.90;44.40;;;;;;5078927;28;20188;-82
2022/11/22 08:00:48;;;;;;;2.17;0.73;;;23.60;45.30;;;;;;5075896;28;20555;-83
2022/11/22 08:03:21;;;;;;;1.33;0.68;;;23.10;46.00;;;;;;5062257;28;20610;-83
2022/11/22 08:05:52;;;;;;;1.30;0.57;;;23.00;46.50;;;;;;5053565;28;20211;-82
2022/11/22 08:08:23;;;;;;;6.20;1.90;;;22.90;46.80;;;;;;5065599;28;20199;-83
2022/11/22 08:10:54;;;;;;;1.58;0.82;;;22.80;47.20;;;;;;5072770;28;20234;-83
2022/11/22 08:13:26;;;;;;;2.60;1.05;;;22.70;47.70;;;;;;5072689;28;20200;-82
2022/11/22 08:15:57;;;;;;;2.17;0.80;;;22.70;47.70;;;;;;5072254;28;20224;-83
2022/11/22 08:18:30;;;;;;;2.22;0.88;;;22.60;48.00;;;;;;5072570;28;20195;-83
2022/11/22 08:21:11;;;;;;;4.68;2.10;;;22.40;48.40;;;;;;5073000;28;20651;-83
2022/11/22 08:23:42;;;;;;;3.35;1.60;;;22.20;49.20;;;;;;5086682;28;20261;-83
2022/11/22 08:26:15;;;;;;;4.18;1.10;;;22.10;49.10;;;;;;5063936;28;20697;-83
2022/11/22 08:28:46;;;;;;;2.60;0.90;;;22.10;49.60;;;;;;5052549;28;20200;-83
2022/11/22 08:31:19;;;;;;;9.55;3.38;;;21.90;49.60;;;;;;5071422;28;20282;-82
2022/11/22 08:33:54;;;;;;;3.50;0.80;;;21.70;50.20;;;;;;5071626;28;20200;-83
2022/11/22 08:36:25;;;;;;;3.15;0.90;;;21.60;50.50;;;;;;5071716;28;20219;-83
2022/11/22 08:38:55;;;;;;;1.10;0.60;;;21.60;50.50;;;;;;5068028;28;20295;-83
2022/11/22 08:41:26;;;;;;;1.08;0.70;;;21.50;50.70;;;;;;5071227;28;20641;-83
2022/11/22 08:43:57;;;;;;;4.22;1.08;;;21.50;51.30;;;;;;5056464;28;20713;-85
2022/11/22 08:46:28;;;;;;;1.23;0.70;;;21.30;51.50;;;;;;5051053;28;20200;-82
2022/11/22 08:49:02;;;;;;;3.40;0.80;;;21.30;51.60;;;;;;5050854;28;20316;-82
2022/11/22 08:51:33;;;;;;;2.85;0.80;;;21.30;51.70;;;;;;5051287;28;20196;-83
2022/11/22 08:54:04;;;;;;;3.63;0.90;;;21.30;51.60;;;;;;5053743;28;20227;-82
2022/11/22 08:56:35;;;;;;;5.03;1.60;;;21.30;51.80;;;;;;5061832;28;20712;-82
2022/11/22 08:59:06;;;;;;;1.65;0.90;;;21.20;51.80;;;;;;5053810;28;20195;-83
2022/11/22 09:01:37;;;;;;;1.95;0.90;;;21.20;52.10;;;;;;5050544;28;20193;-82
2022/11/22 09:04:09;;;;;;;4.03;1.27;;;21.30;51.80;;;;;;5060627;28;20210;-83
2022/11/22 09:06:40;;;;;;;7.85;2.90;;;21.20;52.20;;;;;;5050332;28;20287;-83
2022/11/22 09:09:12;;;;;;;1.83;0.70;;;21.10;52.20;;;;;;5050316;28;20211;-83
2022/11/22 09:11:42;;;;;;;1.27;0.68;;;21.00;52.70;;;;;;5070058;28;20279;-82
2022/11/22 09:14:13;;;;;;;2.25;1.23;;;20.90;53.00;;;;;;5073785;28;20644;-83
2022/11/22 09:16:45;;;;;;;2.25;0.85;;;20.80;53.10;;;;;;5054901;28;20485;-83
2022/11/22 09:19:20;;;;;;;1.48;0.93;;;20.70;53.30;;;;;;5053972;28;20287;-82
2022/11/22 09:21:51;;;;;;;1.58;0.65;;;20.70;53.20;;;;;;5054455;28;20196;-82
2022/11/22 09:24:23;;;;;;;2.08;0.90;;;20.60;53.60;;;;;;5065458;28;20290;-82
2022/11/22 09:26:53;;;;;;;4.30;2.00;;;20.50;53.70;;;;;;5093636;28;20291;-82
2022/11/22 09:29:27;;;;;;;4.50;1.50;;;20.40;54.30;;;;;;5074886;28;20199;-81
2022/11/22 09:31:58;;;;;;;1.58;0.80;;;20.40;54.20;;;;;;5073731;28;20333;-82
2022/11/22 09:34:30;;;;;;;2.67;0.77;;;20.40;54.20;;;;;;5064210;28;20197;-83
2022/11/22 09:37:02;;;;;;;1.67;0.60;;;20.40;54.50;;;;;;5056441;28;20276;-83
2022/11/22 09:39:33;;;;;;;1.20;0.60;;;20.50;54.50;;;;;;5069737;28;20222;-84
2022/11/22 09:42:22;;;;;;;1.48;0.88;;;20.50;54.40;;;;;;5073422;28;20227;-83
2022/11/22 09:45:20;;;;;;;2.53;0.77;;;20.50;54.40;;;;;;5082466;28;20241;-83
2022/11/22 09:47:58;;;;;;;3.17;2.17;;;20.50;54.70;;;;;;5030597;28;20192;-84
2022/11/22 09:50:40;;;;;;;5.93;2.17;;;20.50;54.80;;;;;;5072294;28;20287;-83
2022/11/22 09:53:16;;;;;;;3.88;1.95;;;20.50;55.20;;;;;;5067836;28;20301;-82
2022/11/22 09:55:50;;;;;;;3.03;0.80;;;20.40;55.10;;;;;;5071838;28;20204;-83
2022/11/22 09:58:29;;;;;;;1.98;0.80;;;20.40;55.10;;;;;;5074140;28;20223;-83
2022/11/22 10:01:04;;;;;;;1.73;0.60;;;20.40;55.50;;;;;;5073299;28;20219;-83
2022/11/22 10:03:47;;;;;;;2.30;1.00;;;20.30;55.90;;;;;;5065676;28;20219;-83
2022/11/22 10:06:27;;;;;;;3.80;0.80;;;20.40;55.90;;;;;;5078130;28;20207;-83
2022/11/22 10:09:13;;;;;;;2.00;0.73;;;20.30;56.10;;;;;;5076773;28;20195;-83
2022/11/22 10:11:47;;;;;;;3.63;0.70;;;20.30;56.80;;;;;;5076736;28;20697;-83
2022/11/22 10:14:29;;;;;;;0.90;0.60;;;20.20;57.10;;;;;;5078366;28;20192;-83
2022/11/22 10:17:05;;;;;;;1.63;0.60;;;20.10;57.10;;;;;;5078465;28;20299;-83
2022/11/22 10:19:49;;;;;;;3.25;0.80;;;20.10;57.40;;;;;;5069595;28;20302;-84
2022/11/22 10:22:26;;;;;;;1.95;0.90;;;20.20;57.50;;;;;;5066901;28;20303;-81
2022/11/22 10:24:57;;;;;;;2.88;0.68;;;20.20;57.40;;;;;;5067974;28;20274;-83
2022/11/22 10:27:33;;;;;;;3.78;0.90;;;20.30;57.50;;;;;;5078340;28;20658;-82
2022/11/22 10:30:08;;;;;;;2.67;0.80;;;20.20;57.50;;;;;;5089036;28;20191;-82
2022/11/22 10:32:42;;;;;;;3.13;0.70;;;20.30;57.50;;;;;;5060602;28;20278;-82
2022/11/22 10:35:30;;;;;;;2.05;0.60;;;20.30;57.50;;;;;;5073013;28;20215;-83
2022/11/22 10:38:15;;;;;;;2.33;0.68;;;20.20;57.90;;;;;;5062204;28;20265;-82
2022/11/22 10:40:52;;;;;;;1.90;0.80;;;20.20;57.80;;;;;;5072811;28;20227;-82
2022/11/22 10:43:44;;;;;;;1.63;0.90;;;20.10;58.10;;;;;;5067294;28;20282;-81
2022/11/22 10:46:22;;;;;;;1.42;0.80;;;19.90;58.30;;;;;;5069830;28;20224;-82
2022/11/22 10:49:01;;;;;;;2.88;0.70;;;19.80;58.40;;;;;;5062519;28;20523;-82
2022/11/22 10:51:44;;;;;;;2.45;0.70;;;19.70;58.80;;;;;;5064356;28;20274;-82
2022/11/22 10:54:23;;;;;;;1.75;0.80;;;19.80;59.20;;;;;;5076360;28;20709;-82
2022/11/22 10:57:00;;;;;;;3.67;0.60;;;19.80;59.40;;;;;;5069789;28;20302;-82
2022/11/22 10:59:51;;;;;;;2.42;0.80;;;19.80;59.50;;;;;;5067484;28;20200;-83
2022/11/22 11:02:40;;;;;;;3.38;0.90;;;19.80;59.50;;;;;;5067275;28;20282;-83
2022/11/22 11:05:18;;;;;;;4.22;0.85;;;19.80;59.50;;;;;;5078206;28;20275;-83
2022/11/22 11:07:54;;;;;;;1.50;0.60;;;19.90;59.90;;;;;;5058368;28;20196;-83
2022/11/22 11:10:38;;;;;;;1.92;0.73;;;19.90;59.40;;;;;;5067180;28;20214;-82
2022/11/22 11:13:18;;;;;;;1.70;0.80;;;19.90;59.60;;;;;;5074611;28;20279;-83
2022/11/22 11:15:52;;;;;;;2.55;0.65;;;19.70;60.00;;;;;;5072291;28;20561;-83
2022/11/22 11:18:29;;;;;;;0.98;0.63;;;19.70;60.30;;;;;;5062079;28;20234;-84
2022/11/22 11:21:00;;;;;;;2.17;0.50;;;19.70;60.60;;;;;;5073243;28;20732;-82
2022/11/22 11:23:31;;;;;;;2.25;0.70;;;19.80;60.40;;;;;;5074659;28;20199;-82
2022/11/22 11:26:23;;;;;;;1.45;0.60;;;19.70;60.70;;;;;;5074939;28;20250;-82
2022/11/22 11:29:16;;;;;;;2.30;0.70;;;19.70;60.80;;;;;;5069985;28;20338;-82
2022/11/22 11:31:48;;;;;;;3.47;0.90;;;19.80;61.20;;;;;;5057608;28;20279;-82
2022/11/22 11:34:23;;;;;;;2.50;0.90;;;19.70;61.40;;;;;;5074340;28;20203;-83
2022/11/22 11:36:58;;;;;;;2.13;0.70;;;19.60;61.90;;;;;;5067146;28;20294;-83
2022/11/22 11:39:32;;;;;;;1.75;0.73;;;19.60;62.50;;;;;;5072371;28;20187;-83
2022/11/22 11:42:23;;;;;;;1.45;0.57;;;19.70;62.60;;;;;;5071674;28;20741;-83
2022/11/22 11:44:54;;;;;;;2.55;0.70;;;19.70;62.30;;;;;;5067728;28;20595;-81
2022/11/22 11:47:35;;;;;;;2.40;0.73;;;19.70;61.80;;;;;;5063647;28;20218;-86
2022/11/22 11:50:18;;;;;;;1.77;0.80;;;19.60;62.20;;;;;;5065279;28;20197;-85
2022/11/22 11:52:55;;;;;;;1.77;0.70;;;19.50;62.50;;;;;;5058605;28;20232;-85
2022/11/22 11:55:26;;;;;;;1.38;0.70;;;19.50;63.50;;;;;;5085502;28;20212;-85
2022/11/22 11:57:59;;;;;;;2.75;0.80;;;19.50;63.60;;;;;;5079591;28;20238;-85
2022/11/22 12:00:37;;;;;;;1.13;0.50;;;19.60;63.80;;;;;;5069998;28;20196;-87
2022/11/22 12:03:10;;;;;;;1.83;0.68;;;19.50;63.90;;;;;;5057260;28;20283;-85
2022/11/22 12:05:41;;;;;;;4.30;1.02;;;19.50;64.10;;;;;;5060645;28;20193;-86
2022/11/22 12:08:30;;;;;;;3.22;0.80;;;19.50;63.80;;;;;;5059645;28;20284;-85
2022/11/22 12:11:07;;;;;;;2.15;0.88;;;19.50;64.90;;;;;;5055102;28;20287;-86
2022/11/22 12:13:44;;;;;;;2.63;0.63;;;19.60;65.20;;;;;;5053791;28;20200;-85
2022/11/22 12:16:23;;;;;;;2.72;0.82;;;19.50;64.60;;;;;;5052703;28;20188;-85
2022/11/22 12:18:59;;;;;;;1.35;0.73;;;19.50;64.70;;;;;;5061396;28;20238;-84
2022/11/22 12:21:36;;;;;;;1.77;0.60;;;19.50;65.10;;;;;;5057948;28;20187;-84
2022/11/22 12:24:12;;;;;;;2.08;0.90;;;19.50;66.20;;;;;;5068184;28;20212;-84
2022/11/22 12:26:44;;;;;;;1.45;0.70;;;19.60;67.50;;;;;;5074568;28;20209;-86
2022/11/22 12:29:18;;;;;;;1.92;0.68;;;19.60;67.40;;;;;;5063747;28;20200;-85
2022/11/22 12:31:54;;;;;;;1.45;0.70;;;19.60;68.10;;;;;;5067396;28;20204;-84
2022/11/22 12:34:31;;;;;;;1.52;0.70;;;19.60;67.60;;;;;;5055326;28;20206;-84
2022/11/22 12:37:09;;;;;;;2.58;0.68;;;19.50;67.80;;;;;;5058918;28;20190;-84
2022/11/22 12:39:43;;;;;;;2.30;0.98;;;19.50;69.70;;;;;;5079288;28;20268;-85
2022/11/22 12:42:16;;;;;;;1.42;0.70;;;19.50;70.00;;;;;;5083230;28;20284;-85
2022/11/22 12:44:54;;;;;;;0.88;0.60;;;19.40;71.00;;;;;;5072294;28;20196;-85
2022/11/22 12:47:30;;;;;;;4.30;0.98;;;19.40;72.50;;;;;;5070912;28;20196;-84
2022/11/22 12:50:05;;;;;;;1.90;0.80;;;19.40;74.00;;;;;;5071923;28;20282;-84
2022/11/22 12:52:43;;;;;;;3.55;1.00;;;19.30;72.60;;;;;;5072001;28;20222;-86
2022/11/22 12:55:20;;;;;;;2.42;0.73;;;19.30;74.30;;;;;;5071842;28;20598;-85
2022/11/22 12:57:57;;;;;;;2.28;0.88;;;19.20;74.40;;;;;;5077453;28;20231;-83
2022/11/22 13:00:37;;;;;;;1.27;0.77;;;19.20;74.30;;;;;;5063179;28;20546;-85
2022/11/22 13:03:17;;;;;;;1.13;0.70;;;19.20;75.70;;;;;;5071479;28;20206;-84
2022/11/22 13:05:52;;;;;;;1.75;0.90;;;19.10;76.30;;;;;;5066445;28;20302;-85
2022/11/22 13:08:35;;;;;;;2.50;0.63;;;19.10;76.90;;;;;;5070006;28;20187;-84
2022/11/22 13:11:14;;;;;;;2.42;1.02;;;19.00;76.90;;;;;;5052750;28;20272;-83
2022/11/22 13:13:47;;;;;;;2.28;0.85;;;19.00;75.90;;;;;;5057716;28;20192;-84
2022/11/22 13:16:20;;;;;;;2.10;0.85;;;19.00;76.10;;;;;;5066804;28;20192;-85
2022/11/22 13:18:56;;;;;;;1.60;1.00;;;18.90;76.50;;;;;;5066437;28;20217;-86
2022/11/22 13:21:35;;;;;;;4.35;0.85;;;18.90;77.00;;;;;;5063461;28;20220;-85
2022/11/22 13:24:25;;;;;;;3.47;0.95;;;18.90;77.90;;;;;;5068375;28;20200;-88
2022/11/22 13:27:08;;;;;;;4.25;0.88;;;18.80;74.60;;;;;;5053638;28;20204;-87
2022/11/22 13:29:42;;;;;;;2.38;0.70;;;18.70;75.30;;;;;;5067978;28;20274;-85
2022/11/22 13:32:22;;;;;;;2.65;0.80;;;18.80;76.90;;;;;;5051977;28;20201;-84
2022/11/22 13:35:07;;;;;;;3.95;0.80;;;18.80;78.00;;;;;;5055614;28;20246;-85